createdAt,value
2022-10-15T00:02:04.195Z,97701.66
2022-10-15T00:04:33.318Z,97707.16
2022-10-15T00:07:02.206Z,97705.50
2022-10-15T00:09:30.567Z,97703.56
2022-10-15T00:11:58.906Z,97706.81
2022-10-15T00:14:27.257Z,97706.78
2022-10-15T00:16:55.682Z,97708.31
2022-10-15T00:19:24.450Z,97703.84
2022-10-15T00:21:52.905Z,97707.88
2022-10-15T00:24:22.328Z,97700.03
2022-10-15T00:26:50.732Z,97695.47
2022-10-15T00:29:19.110Z,97696.31
2022-10-15T00:31:47.558Z,97702.38
2022-10-15T00:34:16.270Z,97699.25
2022-10-15T00:36:44.614Z,97696.88
2022-10-15T00:39:12.950Z,97699.22
2022-10-15T00:41:42.922Z,97693.94
2022-10-15T00:44:27.007Z,97692.69
2022-10-15T00:47:12.433Z,97691.34
2022-10-15T00:49:49.597Z,97686.53
2022-10-15T00:52:24.440Z,97693.28
2022-10-15T00:55:09.038Z,97684.25
2022-10-15T00:57:37.411Z,97681.56
2022-10-15T01:00:11.431Z,97679.31
2022-10-15T01:02:42.743Z,97683.03
2022-10-15T01:05:12.361Z,97681.56
2022-10-15T01:07:41.771Z,97671.78
2022-10-15T01:10:10.890Z,97685.19
2022-10-15T01:12:48.968Z,97683.59
2022-10-15T01:15:27.721Z,97683.91
2022-10-15T01:18:13.002Z,97685.19
2022-10-15T01:21:16.389Z,97678.69
2022-10-15T01:24:03.460Z,97682.69
2022-10-15T01:26:50.823Z,97683.25
2022-10-15T01:29:51.454Z,97689.34
2022-10-15T01:32:30.211Z,97687.31
2022-10-15T01:35:23.412Z,97685.06
2022-10-15T01:38:22.556Z,97689.19
2022-10-15T01:40:59.745Z,97687.06
2022-10-15T01:43:36.128Z,97688.09
2022-10-15T01:46:27.802Z,97693.28
2022-10-15T01:49:05.588Z,97692.25
2022-10-15T01:51:35.277Z,97691.03
2022-10-15T01:54:07.029Z,97687.75
2022-10-15T01:56:35.589Z,97693.94
2022-10-15T01:59:04.016Z,97699.81
2022-10-15T02:01:32.547Z,97696.78
2022-10-15T02:04:01.001Z,97700.34
2022-10-15T02:06:42.649Z,97699.44
2022-10-15T02:09:24.756Z,97697.09
2022-10-15T02:12:17.613Z,97698.56
2022-10-15T02:15:01.974Z,97698.13
2022-10-15T02:18:09.329Z,97687.75
2022-10-15T02:21:00.097Z,97690.44
2022-10-15T02:23:51.822Z,97694.63
2022-10-15T02:26:20.923Z,97698.13
2022-10-15T02:28:54.596Z,97693.84
2022-10-15T02:31:24.045Z,97696.09
2022-10-15T02:33:53.483Z,97706.78
2022-10-15T02:36:22.428Z,97699.91
2022-10-15T02:38:50.830Z,97695.59
2022-10-15T02:41:19.708Z,97701.72
2022-10-15T02:43:49.628Z,97699.47
2022-10-15T02:46:19.143Z,97696.81
2022-10-15T02:48:47.589Z,97707.44
2022-10-15T02:51:20.139Z,97702.19
2022-10-15T02:53:48.635Z,97697.03
2022-10-15T02:56:16.978Z,97697.69
2022-10-15T02:58:45.522Z,97697.56
2022-10-15T03:01:14.229Z,97701.50
2022-10-15T03:03:42.551Z,97698.69
2022-10-15T03:06:11.938Z,97698.88
2022-10-15T03:08:40.326Z,97695.38
2022-10-15T03:11:09.658Z,97696.97
2022-10-15T03:13:39.408Z,97702.06
2022-10-15T03:16:11.437Z,97703.50
2022-10-15T03:18:44.816Z,97712.31
2022-10-15T03:21:13.387Z,97711.78
2022-10-15T03:23:42.898Z,97707.31
2022-10-15T03:26:17.902Z,97708.94
2022-10-15T03:28:46.260Z,97716.78
2022-10-15T03:31:22.121Z,97719.84
2022-10-15T03:33:52.680Z,97719.03
2022-10-15T03:36:26.359Z,97716.59
2022-10-15T03:38:56.253Z,97714.66
2022-10-15T03:41:24.681Z,97716.72
2022-10-15T03:43:53.733Z,97715.81
2022-10-15T03:46:22.129Z,97715.53
2022-10-15T03:48:51.541Z,97715.44
2022-10-15T03:51:24.538Z,97724.56
2022-10-15T03:54:01.297Z,97725.91
2022-10-15T03:56:30.133Z,97722.44
2022-10-15T03:59:14.565Z,97724.13
2022-10-15T04:01:44.124Z,97726.25
2022-10-15T04:04:13.362Z,97727.81
2022-10-15T04:06:41.804Z,97723.41
2022-10-15T04:09:15.866Z,97726.81
2022-10-15T04:11:45.445Z,97722.53
2022-10-15T04:14:14.862Z,97725.19
2022-10-15T04:16:44.683Z,97719.56
2022-10-15T04:19:18.365Z,97728.75
2022-10-15T04:21:55.817Z,97727.38
2022-10-15T04:24:47.337Z,97737.75
2022-10-15T04:27:26.258Z,97727.28
2022-10-15T04:30:00.325Z,97731.66
2022-10-15T04:32:28.974Z,97735.94
2022-10-15T04:34:57.770Z,97732.78
2022-10-15T04:37:42.201Z,97734.78
2022-10-15T04:40:13.087Z,97737.16
2022-10-15T04:42:41.486Z,97743.03
2022-10-15T04:45:10.264Z,97747.06
2022-10-15T04:47:39.312Z,97745.63
2022-10-15T04:50:14.051Z,97745.06
2022-10-15T04:53:01.075Z,97746.59
2022-10-15T04:55:33.352Z,97751.69
2022-10-15T04:58:03.908Z,97746.97
2022-10-15T05:00:32.745Z,97753.59
2022-10-15T05:03:28.330Z,97762.50
2022-10-15T05:06:06.445Z,97758.13
2022-10-15T05:08:36.165Z,97761.16
2022-10-15T05:11:19.223Z,97765.03
2022-10-15T05:13:47.635Z,97764.41
2022-10-15T05:16:17.611Z,97764.41
2022-10-15T05:18:48.581Z,97774.31
2022-10-15T05:21:17.340Z,97771.22
2022-10-15T05:23:48.327Z,97779.22
2022-10-15T05:26:27.000Z,97778.84
2022-10-15T05:28:57.317Z,97785.88
2022-10-15T05:31:30.150Z,97776.94
2022-10-15T05:34:09.587Z,97792.72
2022-10-15T05:36:46.661Z,97794.91
2022-10-15T05:39:16.995Z,97794.31
2022-10-15T05:41:47.105Z,97799.63
2022-10-15T05:44:15.945Z,97790.19
2022-10-15T05:46:44.369Z,97797.13
2022-10-15T05:49:19.498Z,97798.63
2022-10-15T05:54:55.219Z,97809.94
2022-10-15T05:57:23.705Z,97815.91
2022-10-15T05:59:52.181Z,97812.91
2022-10-15T06:02:20.830Z,97807.84
2022-10-15T06:04:49.645Z,97811.25
2022-10-15T06:07:18.147Z,97816.50
2022-10-15T06:09:47.135Z,97818.00
2022-10-15T06:12:15.635Z,97828.59
2022-10-15T06:14:44.126Z,97827.84
2022-10-15T06:17:12.625Z,97831.16
2022-10-15T06:19:43.527Z,97826.66
2022-10-15T06:22:12.828Z,97837.47
2022-10-15T06:24:43.867Z,97829.94
2022-10-15T06:27:14.283Z,97843.81
2022-10-15T06:29:43.385Z,97840.41
2022-10-15T06:32:13.282Z,97844.47
2022-10-15T06:34:44.962Z,97851.69
2022-10-15T06:37:13.736Z,97849.97
2022-10-15T06:39:45.550Z,97850.34
2022-10-15T06:42:16.163Z,97854.06
2022-10-15T06:44:51.645Z,97859.94
2022-10-15T06:47:22.195Z,97851.09
2022-10-15T06:49:51.668Z,97854.53
2022-10-15T06:52:21.335Z,97844.34
2022-10-15T06:54:49.962Z,97843.75
2022-10-15T06:57:21.218Z,97840.22
2022-10-15T06:59:49.974Z,97845.94
2022-10-15T07:02:19.703Z,97848.47
2022-10-15T07:04:48.198Z,97846.81
2022-10-15T07:07:19.453Z,97850.59
2022-10-15T07:09:48.637Z,97843.53
2022-10-15T07:12:17.705Z,97841.56
2022-10-15T07:14:46.148Z,97845.38
2022-10-15T07:17:14.953Z,97844.03
2022-10-15T07:19:45.342Z,97839.59
2022-10-15T07:22:13.783Z,97839.47
2022-10-15T07:24:42.230Z,97849.44
2022-10-15T07:27:18.707Z,97849.03
2022-10-15T07:29:47.854Z,97846.41
2022-10-15T07:32:16.534Z,97844.59
2022-10-15T07:34:45.500Z,97847.47
2022-10-15T07:37:13.870Z,97847.75
2022-10-15T07:39:42.366Z,97855.22
2022-10-15T07:42:10.747Z,97850.03
2022-10-15T07:44:39.099Z,97843.38
2022-10-15T07:47:11.371Z,97842.31
2022-10-15T07:49:39.809Z,97856.34
2022-10-15T07:52:14.308Z,97854.78
2022-10-15T07:54:42.972Z,97857.31
2022-10-15T07:57:15.275Z,97855.44
2022-10-15T07:59:44.252Z,97859.22
2022-10-15T08:02:17.045Z,97860.66
2022-10-15T08:04:45.759Z,97851.16
2022-10-15T08:07:14.862Z,97861.09
2022-10-15T08:09:43.852Z,97856.47
2022-10-15T08:12:13.029Z,97859.47
2022-10-15T08:14:41.408Z,97848.13
2022-10-15T08:17:10.091Z,97855.63
2022-10-15T08:19:38.631Z,97854.41
2022-10-15T08:22:07.052Z,97858.81
2022-10-15T08:24:36.547Z,97863.56
2022-10-15T08:27:04.970Z,97866.34
2022-10-15T08:29:33.948Z,97869.66
2022-10-15T08:32:02.459Z,97861.94
2022-10-15T08:34:32.128Z,97855.66
2022-10-15T08:37:02.814Z,97852.63
2022-10-15T08:39:32.112Z,97860.38
2022-10-15T08:42:03.982Z,97854.69
2022-10-15T08:44:47.473Z,97854.47
2022-10-15T08:47:37.219Z,97845.66
2022-10-15T08:50:26.036Z,97845.66
2022-10-15T08:52:54.890Z,97846.22
2022-10-15T08:58:02.246Z,97842.06
2022-10-15T09:00:38.054Z,97837.78
2022-10-15T09:03:34.766Z,97838.75
2022-10-15T09:06:14.495Z,97837.94
2022-10-15T09:08:49.801Z,97848.19
2022-10-15T09:11:29.753Z,97847.00
2022-10-15T09:13:58.155Z,97843.84
2022-10-15T09:16:31.854Z,97827.56
2022-10-15T09:19:01.935Z,97832.59
2022-10-15T09:21:30.392Z,97831.16
2022-10-15T09:24:02.116Z,97840.00
2022-10-15T09:26:40.880Z,97834.56
2022-10-15T09:29:24.333Z,97832.75
2022-10-15T09:32:12.673Z,97840.66
2022-10-15T09:35:00.913Z,97824.16
2022-10-15T09:37:39.340Z,97821.91
2022-10-15T09:40:07.886Z,97826.13
2022-10-15T09:42:38.925Z,97819.28
2022-10-15T09:45:11.177Z,97821.47
2022-10-15T09:47:42.310Z,97816.66
2022-10-15T09:50:13.648Z,97821.19
2022-10-15T09:52:56.033Z,97823.22
2022-10-15T09:55:46.688Z,97815.53
2022-10-15T09:58:25.257Z,97824.25
2022-10-15T10:01:00.723Z,97822.84
2022-10-15T10:03:37.400Z,97813.28
2022-10-15T10:06:11.915Z,97818.00
2022-10-15T10:08:57.505Z,97812.38
2022-10-15T10:11:26.593Z,97817.06
2022-10-15T10:13:59.077Z,97804.81
2022-10-15T10:16:31.052Z,97801.44
2022-10-15T10:19:14.987Z,97804.56
2022-10-15T10:21:44.075Z,97815.22
2022-10-15T10:24:21.834Z,97806.59
2022-10-15T10:26:50.308Z,97809.69
2022-10-15T10:29:33.543Z,97814.06
2022-10-15T10:32:33.481Z,97803.63
2022-10-15T10:35:03.096Z,97806.50
2022-10-15T10:37:42.439Z,97809.13
2022-10-15T10:40:29.446Z,97796.00
2022-10-15T10:43:38.991Z,97794.16
2022-10-15T10:46:17.210Z,97784.91
2022-10-15T10:48:53.170Z,97784.00
2022-10-15T10:51:27.068Z,97798.50
2022-10-15T10:54:22.021Z,97778.84
2022-10-15T10:56:51.433Z,97795.41
2022-10-15T10:59:20.511Z,97795.78
2022-10-15T11:01:53.291Z,97794.97
2022-10-15T11:04:25.874Z,97790.19
2022-10-15T11:07:07.829Z,97793.47
2022-10-15T11:10:02.602Z,97792.66
2022-10-15T11:12:40.261Z,97783.81
2022-10-15T11:15:24.739Z,97789.53
2022-10-15T11:18:23.371Z,97790.06
2022-10-15T11:21:10.430Z,97786.72
2022-10-15T11:23:52.584Z,97788.00
2022-10-15T11:26:58.678Z,97782.19
2022-10-15T11:30:01.736Z,97782.78
2022-10-15T11:33:08.860Z,97776.97
2022-10-15T11:35:54.659Z,97779.78
2022-10-15T11:38:55.443Z,97781.06
2022-10-15T11:41:58.016Z,97779.00
2022-10-15T11:44:35.200Z,97779.06
2022-10-15T11:47:23.861Z,97783.09
2022-10-15T11:50:22.818Z,97778.38
2022-10-15T11:52:59.551Z,97778.38
2022-10-15T11:56:03.959Z,97777.47
2022-10-15T11:58:47.669Z,97784.19
2022-10-15T12:01:24.620Z,97779.19
2022-10-15T12:03:59.030Z,97779.28
2022-10-15T12:06:32.292Z,97780.56
2022-10-15T12:09:03.100Z,97784.75
2022-10-15T12:11:53.828Z,97778.84
2022-10-15T12:14:36.883Z,97784.31
2022-10-15T12:17:12.979Z,97791.72
2022-10-15T12:19:48.708Z,97791.34
2022-10-15T12:22:36.293Z,97790.41
2022-10-15T12:25:05.689Z,97785.72
2022-10-15T12:27:36.439Z,97786.56
2022-10-15T12:30:08.233Z,97779.41
2022-10-15T12:32:50.614Z,97795.63
2022-10-15T12:35:29.746Z,97786.59
2022-10-15T12:38:11.069Z,97780.63
2022-10-15T12:40:40.228Z,97781.69
2022-10-15T12:43:16.567Z,97783.56
2022-10-15T12:45:56.210Z,97774.44
2022-10-15T12:48:43.941Z,97776.47
2022-10-15T12:51:25.165Z,97778.03
2022-10-15T12:53:58.128Z,97773.63
2022-10-15T12:56:40.451Z,97768.75
2022-10-15T12:59:31.484Z,97774.25
2022-10-15T13:02:03.479Z,97774.03
2022-10-15T13:04:39.915Z,97777.88
2022-10-15T13:07:12.320Z,97771.19
2022-10-15T13:09:43.709Z,97772.31
2022-10-15T13:12:29.452Z,97769.34
2022-10-15T13:15:04.688Z,97765.50
2022-10-15T13:17:34.032Z,97766.03
2022-10-15T13:20:12.230Z,97757.19
2022-10-15T13:22:40.790Z,97756.56
2022-10-15T13:25:23.289Z,97761.72
2022-10-15T13:27:53.291Z,97749.63
2022-10-15T13:32:57.790Z,97763.38
2022-10-15T13:35:32.709Z,97761.38
2022-10-15T13:38:04.608Z,97768.53
2022-10-15T13:40:34.008Z,97767.75
2022-10-15T13:43:07.361Z,97762.16
2022-10-15T13:45:38.002Z,97762.66
2022-10-15T13:48:14.254Z,97756.41
2022-10-15T13:50:42.705Z,97760.75
2022-10-15T13:53:23.592Z,97748.84
2022-10-15T13:55:53.300Z,97748.53
2022-10-15T13:58:24.983Z,97751.63
2022-10-15T14:01:33.741Z,97746.06
2022-10-15T14:04:05.258Z,97757.59
2022-10-15T14:06:39.619Z,97754.78
2022-10-15T14:09:21.986Z,97745.34
2022-10-15T14:11:52.653Z,97751.56
2022-10-15T14:14:37.460Z,97756.22
2022-10-15T14:17:10.787Z,97748.97
2022-10-15T14:19:39.702Z,97742.13
2022-10-15T14:22:19.435Z,97750.78
2022-10-15T14:24:47.953Z,97748.41
2022-10-15T14:27:26.958Z,97749.53
2022-10-15T14:29:57.221Z,97747.31
2022-10-15T14:32:31.703Z,97738.41
2022-10-15T14:35:08.660Z,97734.59
2022-10-15T14:37:42.904Z,97724.84
2022-10-15T14:40:11.286Z,97733.13
2022-10-15T14:42:44.710Z,97740.38
2022-10-15T14:45:21.304Z,97737.56
2022-10-15T14:47:51.956Z,97745.66
2022-10-15T14:50:36.889Z,97743.53
2022-10-15T14:53:11.295Z,97742.69
2022-10-15T14:55:49.259Z,97747.09
2022-10-15T14:58:20.143Z,97755.56
2022-10-15T15:00:51.063Z,97743.72
2022-10-15T15:03:21.290Z,97751.31
2022-10-15T15:05:53.090Z,97746.31
2022-10-15T15:08:22.632Z,97742.75
2022-10-15T15:10:51.119Z,97756.72
2022-10-15T15:13:22.636Z,97746.88
2022-10-15T15:15:52.651Z,97744.38
2022-10-15T15:18:21.707Z,97757.97
2022-10-15T15:20:51.314Z,97764.25
2022-10-15T15:23:26.025Z,97748.94
2022-10-15T15:25:54.996Z,97773.25
2022-10-15T15:28:25.978Z,97778.84
2022-10-15T15:30:59.070Z,97778.03
2022-10-15T15:33:28.685Z,97782.13
2022-10-15T15:36:03.109Z,97787.84
2022-10-15T15:41:21.536Z,97799.09
2022-10-15T15:43:56.256Z,97800.03
2022-10-15T15:46:34.944Z,97811.81
2022-10-15T15:49:20.451Z,97816.06
2022-10-15T15:51:52.431Z,97815.03
2022-10-15T15:54:26.351Z,97815.88
2022-10-15T15:56:55.905Z,97810.53
2022-10-15T15:59:25.543Z,97816.72
2022-10-15T16:01:54.070Z,97820.69
2022-10-15T16:04:25.627Z,97829.75
2022-10-15T16:06:55.052Z,97826.88
2022-10-15T16:09:28.064Z,97827.06
2022-10-15T16:11:58.061Z,97844.91
2022-10-15T16:14:28.578Z,97847.44
2022-10-15T16:16:59.860Z,97856.72
2022-10-15T16:19:28.851Z,97858.16
2022-10-15T16:22:00.706Z,97862.81
2022-10-15T16:24:33.689Z,97865.41
2022-10-15T16:27:03.367Z,97869.13
2022-10-15T16:29:32.969Z,97878.25
2022-10-15T16:32:02.662Z,97884.31
2022-10-15T16:34:34.543Z,97884.28
2022-10-15T16:37:03.477Z,97891.72
2022-10-15T16:39:40.042Z,97897.72
2022-10-15T16:44:53.268Z,97903.03
2022-10-15T16:47:26.145Z,97917.34
2022-10-15T16:52:50.422Z,97930.34
2022-10-15T16:55:20.598Z,97934.41
2022-10-15T16:57:52.622Z,97933.31
2022-10-15T17:00:21.812Z,97932.25
2022-10-15T17:02:55.927Z,97940.38
2022-10-15T17:05:33.231Z,97933.19
2022-10-15T17:08:04.623Z,97940.38
2022-10-15T17:10:36.859Z,97940.69
2022-10-15T17:13:07.956Z,97940.69
2022-10-15T17:15:38.857Z,97935.16
2022-10-15T17:18:13.069Z,97939.66
2022-10-15T17:20:48.717Z,97940.97
2022-10-15T17:23:23.542Z,97951.25
2022-10-15T17:26:01.470Z,97948.00
2022-10-15T17:31:35.852Z,97956.66
2022-10-15T17:37:05.334Z,97965.34
2022-10-15T17:39:39.688Z,97959.22
2022-10-15T17:42:08.402Z,97954.06
2022-10-15T17:44:42.046Z,97958.28
2022-10-15T17:47:14.989Z,97950.94
2022-10-15T17:49:58.501Z,97957.59
2022-10-15T17:52:50.341Z,97956.94
2022-10-15T17:55:26.872Z,97959.97
2022-10-15T17:58:03.351Z,97947.97
2022-10-15T18:00:35.668Z,97952.97
2022-10-15T18:03:05.151Z,97944.66
2022-10-15T18:05:43.963Z,97941.22
2022-10-15T18:08:17.606Z,97945.94
2022-10-15T18:10:53.785Z,97942.75
2022-10-15T18:13:29.737Z,97940.06
2022-10-15T18:16:06.352Z,97942.53
2022-10-15T18:22:04.898Z,97947.06
2022-10-15T18:24:42.778Z,97958.31
2022-10-15T18:27:16.271Z,97952.53
2022-10-15T18:30:07.849Z,97958.09
2022-10-15T18:32:41.419Z,97957.00
2022-10-15T18:35:20.289Z,97962.31
2022-10-15T18:37:59.335Z,97952.19
2022-10-15T18:40:49.862Z,97955.22
2022-10-15T18:43:33.026Z,97951.81
2022-10-15T18:46:05.691Z,97958.31
2022-10-15T18:48:40.767Z,97964.47
2022-10-15T18:51:16.723Z,97963.72
2022-10-15T18:53:46.118Z,97967.09
2022-10-15T18:56:16.155Z,97978.09
2022-10-15T18:58:44.860Z,97969.97
2022-10-15T19:01:39.759Z,97975.09
2022-10-15T19:04:19.374Z,97981.47
2022-10-15T19:06:52.996Z,97982.13
2022-10-15T19:09:28.851Z,97988.31
2022-10-15T19:12:23.885Z,98000.38
2022-10-15T19:14:56.180Z,97999.09
2022-10-15T19:17:33.462Z,98000.41
2022-10-15T19:20:04.985Z,98009.63
2022-10-15T19:22:44.445Z,98004.91
2022-10-15T19:25:13.022Z,98006.97
2022-10-15T19:30:31.458Z,98003.00
2022-10-15T19:33:08.826Z,97999.81
2022-10-15T19:35:53.109Z,98007.81
2022-10-15T19:38:24.172Z,98005.13
2022-10-15T19:40:59.428Z,98009.28
2022-10-15T19:43:28.360Z,98007.69
2022-10-15T19:46:11.509Z,98011.72
2022-10-15T19:48:55.649Z,98017.25
2022-10-15T19:51:29.231Z,98021.38
2022-10-15T19:54:00.498Z,98023.13
2022-10-15T19:56:35.277Z,98021.16
2022-10-15T19:59:06.236Z,98023.16
2022-10-15T20:01:41.283Z,98026.72
2022-10-15T20:04:13.409Z,98027.34
2022-10-15T20:06:46.193Z,98034.94
2022-10-15T20:09:15.014Z,98033.75
2022-10-15T20:11:45.817Z,98029.00
2022-10-15T20:14:16.590Z,98027.31
2022-10-15T20:16:46.768Z,98025.41
2022-10-15T20:19:25.340Z,98021.34
2022-10-15T20:21:55.294Z,98023.47
2022-10-15T20:24:28.772Z,98027.50
2022-10-15T20:26:58.071Z,98029.09
2022-10-15T20:29:27.644Z,98025.16
2022-10-15T20:32:05.680Z,98023.56
2022-10-15T20:34:45.811Z,98022.78
2022-10-15T20:37:16.480Z,98030.28
2022-10-15T20:39:45.393Z,98033.59
2022-10-15T20:42:14.933Z,98035.59
2022-10-15T20:44:44.949Z,98033.03
2022-10-15T20:47:13.415Z,98040.53
2022-10-15T20:49:45.516Z,98049.06
2022-10-15T20:52:13.985Z,98038.44
2022-10-15T20:54:42.389Z,98045.97
2022-10-15T20:57:10.857Z,98043.78
2022-10-15T20:59:39.357Z,98041.78
2022-10-15T21:02:07.822Z,98043.00
2022-10-15T21:04:39.591Z,98045.78
2022-10-15T21:07:08.072Z,98047.78
2022-10-15T21:09:37.940Z,98049.94
2022-10-15T21:12:09.654Z,98062.78
2022-10-15T21:14:38.739Z,98058.44
2022-10-15T21:17:07.995Z,98060.75
2022-10-15T21:19:37.114Z,98057.88
2022-10-15T21:22:05.437Z,98065.06
2022-10-15T21:24:38.619Z,98062.81
2022-10-15T21:27:10.449Z,98066.19
2022-10-15T21:29:39.446Z,98071.28
2022-10-15T21:32:07.945Z,98055.28
2022-10-15T21:34:36.376Z,98072.84
2022-10-15T21:37:04.708Z,98075.09
2022-10-15T21:39:33.103Z,98074.28
2022-10-15T21:42:02.061Z,98081.75
2022-10-15T21:44:30.912Z,98082.03
2022-10-15T21:46:59.303Z,98091.38
2022-10-15T21:49:27.625Z,98081.47
2022-10-15T21:51:56.126Z,98071.94
2022-10-15T21:54:27.755Z,98076.31
2022-10-15T21:56:56.205Z,98081.47
2022-10-15T21:59:24.664Z,98081.25
2022-10-15T22:01:53.200Z,98085.22
2022-10-15T22:04:21.635Z,98085.03
2022-10-15T22:06:50.178Z,98086.63
2022-10-15T22:09:18.647Z,98092.56
2022-10-15T22:11:47.625Z,98086.19
2022-10-15T22:14:16.041Z,98078.31
2022-10-15T22:16:44.425Z,98079.09
2022-10-15T22:19:14.687Z,98084.25
2022-10-15T22:21:43.067Z,98074.91
2022-10-15T22:24:18.024Z,98083.84
2022-10-15T22:26:48.286Z,98090.19
2022-10-15T22:29:19.557Z,98083.03
2022-10-15T22:31:48.175Z,98096.75
2022-10-15T22:34:16.725Z,98093.56
2022-10-15T22:36:45.081Z,98101.28
2022-10-15T22:39:14.356Z,98103.88
2022-10-15T22:41:43.926Z,98097.72
2022-10-15T22:44:17.622Z,98101.66
2022-10-15T22:46:46.524Z,98101.66
2022-10-15T22:49:15.872Z,98092.72
2022-10-15T22:51:44.230Z,98102.59
2022-10-15T22:54:12.632Z,98091.53
2022-10-15T22:56:40.904Z,98096.88
2022-10-15T23:01:42.838Z,98102.84
2022-10-15T23:04:12.528Z,98113.22
2022-10-15T23:06:41.553Z,98099.31
2022-10-15T23:09:11.129Z,98113.19
2022-10-15T23:11:40.294Z,98112.00
2022-10-15T23:14:11.541Z,98112.78
2022-10-15T23:16:44.690Z,98116.25
2022-10-15T23:19:17.814Z,98116.84
2022-10-15T23:21:50.510Z,98115.78
2022-10-15T23:24:20.342Z,98112.28
2022-10-15T23:26:48.723Z,98113.22
2022-10-15T23:29:21.310Z,98120.66
2022-10-15T23:31:50.612Z,98114.88
2022-10-15T23:34:23.705Z,98122.06
2022-10-15T23:36:52.450Z,98126.31
2022-10-15T23:39:22.774Z,98120.31
2022-10-15T23:41:51.130Z,98128.88
2022-10-15T23:44:19.514Z,98126.72
2022-10-15T23:46:48.113Z,98121.38
2022-10-15T23:49:16.893Z,98120.25
2022-10-15T23:51:45.283Z,98127.56
2022-10-15T23:54:15.708Z,98132.72
2022-10-15T23:56:44.876Z,98135.31
2022-10-15T23:59:13.218Z,98129.91
